aviador You're here:

EPLB Decoded Metar

in
Report Time2017-08-23 09:30:00
UTC Time2017-08-23 10:05:45
Flight Rules mvfr MVFR
Wind290° at 12 kt
W.Rank290° ranks 1
Current wind is above 290° avg. (8.2)
Visibility7000 m
Phenomena:N/A
Clouds:Scattered 018 Hf
Broken 025 Hf
Expected CloudBase > 1,200 ft AGL from Temp-Dew spread
Ceiling2,500 ft
Temp15°C
Dew Point12°C (82% RH)
AAT11.3°C
QNH1015 hPa
Raw Report
EPLB 230930Z 29012KT 7000 SCT018 BKN025 15/12 Q1015=

Extra information for EPLB:More info

Social comments